createdAt,value
2017-03-02T00:00:18.476Z,96.26
2017-03-02T00:01:28.199Z,95.79
2017-03-02T00:02:37.223Z,96.26
2017-03-02T00:03:46.151Z,96.26
2017-03-02T00:04:55.493Z,95.79
2017-03-02T00:06:05.631Z,96.26
2017-03-02T00:07:15.357Z,96.26
2017-03-02T00:08:24.733Z,96.36
2017-03-02T00:09:34.879Z,96.17
2017-03-02T00:10:45.048Z,96.64
2017-03-02T00:11:54.800Z,96.45
2017-03-02T00:13:04.936Z,96.83
2017-03-02T00:14:14.831Z,96.88
2017-03-02T00:15:24.995Z,96.73
2017-03-02T00:16:34.356Z,96.26
2017-03-02T00:17:44.095Z,95.98
2017-03-02T00:18:53.826Z,96.41
2017-03-02T00:20:03.145Z,97.21
2017-03-02T00:21:12.460Z,97.02
2017-03-02T00:22:21.807Z,96.88
2017-03-02T00:23:31.538Z,96.88
2017-03-02T00:24:40.445Z,97.07
2017-03-02T00:25:51.095Z,96.78
2017-03-02T00:27:00.832Z,97.26
2017-03-02T00:28:10.199Z,96.78
2017-03-02T00:29:19.922Z,97.17
2017-03-02T00:30:29.658Z,97.26
2017-03-02T00:31:39.168Z,97.92
2017-03-02T00:32:48.484Z,97.64
2017-03-02T00:33:57.399Z,97.64
2017-03-02T00:35:07.556Z,97.83
2017-03-02T00:36:18.118Z,97.64
2017-03-02T00:37:27.510Z,98.11
2017-03-02T00:38:37.276Z,98.02
2017-03-02T00:39:47.007Z,98.11
2017-03-02T00:40:57.149Z,98.68
2017-03-02T00:42:06.482Z,98.68
2017-03-02T00:43:16.755Z,98.68
2017-03-02T00:44:26.081Z,98.78
2017-03-02T00:45:36.648Z,98.78
2017-03-02T00:46:45.585Z,98.59
2017-03-02T00:47:54.941Z,98.4
2017-03-02T00:49:04.984Z,98.78
2017-03-02T00:50:15.150Z,98.97
2017-03-02T00:51:24.076Z,98.78
2017-03-02T00:52:34.232Z,99.44
2017-03-02T00:53:44.415Z,99.44
2017-03-02T00:54:54.558Z,99.54
2017-03-02T00:56:04.711Z,99.99
2017-03-02T00:57:14.491Z,99.99
2017-03-02T00:58:24.252Z,99.99
2017-03-02T00:59:33.595Z,99.99
2017-03-02T01:00:43.027Z,99.99
2017-03-02T01:01:53.220Z,99.99
2017-03-02T01:03:03.770Z,99.99
2017-03-02T01:04:13.922Z,99.99
2017-03-02T01:05:24.091Z,99.99
2017-03-02T01:06:33.058Z,99.99
2017-03-02T01:07:42.791Z,99.99
2017-03-02T01:08:51.719Z,99.99
2017-03-02T01:10:01.456Z,99.99
2017-03-02T01:11:11.216Z,99.99
2017-03-02T01:12:20.728Z,99.99
2017-03-02T01:13:30.462Z,99.99
2017-03-02T01:14:39.823Z,99.99
2017-03-02T01:15:49.549Z,99.99
2017-03-02T01:17:00.114Z,99.99
2017-03-02T01:18:09.911Z,99.99
2017-03-02T01:19:18.831Z,99.99
2017-03-02T01:20:28.154Z,99.99
2017-03-02T01:21:37.495Z,99.99
2017-03-02T01:22:46.417Z,99.99
2017-03-02T01:23:55.891Z,99.99
2017-03-02T01:25:05.217Z,99.99
2017-03-02T01:26:14.982Z,99.99
2017-03-02T01:27:25.121Z,99.99
2017-03-02T01:28:34.858Z,99.99
2017-03-02T01:29:43.849Z,99.99
2017-03-02T01:30:54.000Z,99.99
2017-03-02T01:32:03.325Z,99.99
2017-03-02T01:33:13.058Z,99.99
2017-03-02T01:34:23.202Z,99.99
2017-03-02T01:35:32.703Z,99.99
2017-03-02T01:36:42.432Z,99.99
2017-03-02T01:37:52.179Z,99.99
2017-03-02T01:39:01.505Z,99.99
2017-03-02T01:40:11.664Z,99.99
2017-03-02T01:41:21.582Z,99.99
2017-03-02T01:42:31.308Z,99.99
2017-03-02T01:43:41.047Z,99.99
2017-03-02T01:44:50.367Z,99.99
2017-03-02T01:45:59.285Z,99.99
2017-03-02T01:47:09.630Z,99.99
2017-03-02T01:48:18.977Z,99.99
2017-03-02T01:49:28.336Z,99.99
2017-03-02T01:50:38.529Z,99.99
2017-03-02T01:51:47.852Z,99.99
2017-03-02T01:52:57.235Z,99.99
2017-03-02T01:54:06.982Z,99.99
2017-03-02T01:55:16.308Z,99.99
2017-03-02T01:56:25.623Z,99.99
2017-03-02T01:57:34.966Z,99.99
2017-03-02T01:58:44.855Z,99.99
2017-03-02T01:59:54.610Z,99.99
2017-03-02T02:01:05.173Z,99.99
2017-03-02T02:02:14.902Z,99.99
2017-03-02T02:03:25.054Z,99.99
2017-03-02T02:04:34.798Z,99.99
2017-03-02T02:05:44.113Z,99.99
2017-03-02T02:06:53.042Z,99.99
2017-03-02T02:08:02.374Z,99.99
2017-03-02T02:09:11.699Z,99.99
2017-03-02T02:10:20.670Z,99.99
2017-03-02T02:11:30.401Z,99.99
2017-03-02T02:12:40.128Z,99.99
2017-03-02T02:13:49.891Z,99.99
2017-03-02T02:14:59.207Z,99.99
2017-03-02T02:16:08.947Z,99.99
2017-03-02T02:17:19.498Z,99.99
2017-03-02T02:18:30.038Z,99.99
2017-03-02T02:19:39.763Z,99.99
2017-03-02T02:20:49.503Z,99.99
2017-03-02T02:21:59.640Z,99.99
2017-03-02T02:23:08.971Z,99.99
2017-03-02T02:24:18.736Z,99.99
2017-03-02T02:25:28.486Z,99.99
2017-03-02T02:26:38.230Z,99.99
2017-03-02T02:27:48.828Z,99.99
2017-03-02T02:28:58.147Z,99.99
2017-03-02T02:30:08.298Z,99.99
2017-03-02T02:31:18.849Z,99.99
2017-03-02T02:32:28.578Z,99.99
2017-03-02T02:33:38.452Z,99.99
2017-03-02T02:34:49.405Z,99.99
2017-03-02T02:35:59.556Z,99.99
2017-03-02T02:37:10.139Z,99.99
2017-03-02T02:38:20.291Z,99.99
2017-03-02T02:39:29.284Z,99.99
2017-03-02T02:40:39.009Z,99.99
2017-03-02T02:41:48.794Z,99.99
2017-03-02T02:42:57.728Z,99.99
2017-03-02T02:44:08.269Z,99.99
2017-03-02T02:45:18.214Z,99.99
2017-03-02T02:46:28.367Z,99.99
2017-03-02T02:47:37.275Z,99.99
2017-03-02T02:48:47.813Z,99.99
2017-03-02T02:49:57.131Z,99.99
2017-03-02T02:51:07.037Z,99.99
2017-03-02T02:52:17.176Z,99.99
2017-03-02T02:53:26.916Z,99.99
2017-03-02T02:54:36.639Z,99.99
2017-03-02T02:55:46.372Z,99.99
2017-03-02T02:56:55.763Z,99.99
2017-03-02T02:58:05.092Z,99.99
2017-03-02T02:59:14.444Z,99.99
2017-03-02T03:00:24.996Z,99.99
2017-03-02T03:01:34.728Z,99.99
2017-03-02T03:02:44.467Z,99.99
2017-03-02T03:03:54.197Z,99.99
2017-03-02T03:05:03.957Z,99.99
2017-03-02T03:06:14.534Z,99.99
2017-03-02T03:07:23.848Z,99.99
2017-03-02T03:08:33.848Z,99.99
2017-03-02T03:09:43.585Z,99.99
2017-03-02T03:10:53.312Z,99.99
2017-03-02T03:12:03.465Z,99.99
2017-03-02T03:13:12.393Z,99.99
2017-03-02T03:14:21.805Z,99.99
2017-03-02T03:15:30.723Z,99.99
2017-03-02T03:16:40.085Z,99.99
2017-03-02T03:17:49.818Z,99.99
2017-03-02T03:18:59.559Z,99.99
2017-03-02T03:20:09.344Z,99.99
2017-03-02T03:21:18.663Z,99.99
2017-03-02T03:22:28.000Z,99.99
2017-03-02T03:23:37.721Z,99.99
2017-03-02T03:24:47.072Z,99.99
2017-03-02T03:25:57.976Z,99.99
2017-03-02T03:27:08.109Z,99.99
2017-03-02T03:28:17.024Z,99.99
2017-03-02T03:29:26.355Z,99.99
2017-03-02T03:30:35.678Z,99.99
2017-03-02T03:31:45.061Z,99.99
2017-03-02T03:32:54.006Z,99.99
2017-03-02T03:34:03.334Z,99.99
2017-03-02T03:35:13.080Z,99.99
2017-03-02T03:36:23.230Z,99.99
2017-03-02T03:37:33.118Z,99.99
2017-03-02T03:38:42.860Z,99.99
2017-03-02T03:39:51.783Z,99.99
2017-03-02T03:41:01.507Z,99.99
2017-03-02T03:42:11.692Z,99.99
2017-03-02T03:43:20.764Z,99.99
2017-03-02T03:44:30.084Z,99.99
2017-03-02T03:45:38.993Z,99.99
2017-03-02T03:46:48.717Z,99.99
2017-03-02T03:47:58.054Z,99.99
2017-03-02T03:49:08.347Z,99.99
2017-03-02T03:50:18.072Z,99.99
2017-03-02T03:51:27.804Z,99.99
2017-03-02T03:52:36.741Z,99.99
2017-03-02T03:53:46.467Z,99.99
2017-03-02T03:54:56.320Z,99.99
2017-03-02T03:56:06.065Z,99.99
2017-03-02T03:57:15.820Z,99.99
2017-03-02T03:58:25.586Z,99.99
2017-03-02T03:59:35.758Z,99.99
2017-03-02T04:00:45.798Z,99.99
2017-03-02T04:01:55.131Z,99.99
2017-03-02T04:03:05.267Z,99.99
2017-03-02T04:04:15.417Z,99.99
2017-03-02T04:05:25.158Z,99.99
2017-03-02T04:06:34.971Z,99.99
2017-03-02T04:07:44.723Z,99.99
2017-03-02T04:08:54.446Z,99.99
2017-03-02T04:10:04.186Z,99.99
2017-03-02T04:11:14.732Z,99.99
2017-03-02T04:12:23.799Z,99.99
2017-03-02T04:13:33.139Z,99.99
2017-03-02T04:14:42.923Z,99.99
2017-03-02T04:15:52.264Z,99.99
2017-03-02T04:17:01.626Z,99.99
2017-03-02T04:18:11.506Z,99.99
2017-03-02T04:19:21.648Z,99.99
2017-03-02T04:20:31.793Z,99.99
2017-03-02T04:21:41.119Z,99.99
2017-03-02T04:22:51.252Z,99.99
2017-03-02T04:24:01.124Z,99.99
2017-03-02T04:25:10.037Z,99.99
2017-03-02T04:26:20.178Z,99.99
2017-03-02T04:27:29.907Z,99.99
2017-03-02T04:28:39.249Z,99.99
2017-03-02T04:29:48.729Z,99.99
2017-03-02T04:30:58.066Z,99.99
2017-03-02T04:32:07.402Z,99.99
2017-03-02T04:33:16.725Z,99.99
2017-03-02T04:34:26.048Z,99.99
2017-03-02T04:35:35.456Z,99.99
2017-03-02T04:36:45.187Z,99.99
2017-03-02T04:37:54.530Z,99.99
2017-03-02T04:39:04.670Z,99.99
2017-03-02T04:40:13.625Z,99.99
2017-03-02T04:41:23.126Z,99.99
2017-03-02T04:42:32.442Z,99.99
2017-03-02T04:43:41.772Z,99.99
2017-03-02T04:44:51.127Z,99.99
2017-03-02T04:46:00.859Z,99.99
2017-03-02T04:47:11.148Z,99.99
2017-03-02T04:48:20.909Z,99.99
2017-03-02T04:49:31.464Z,99.99
2017-03-02T04:50:41.194Z,99.99
2017-03-02T04:51:50.921Z,99.99
2017-03-02T04:53:00.398Z,99.99
2017-03-02T04:54:10.129Z,99.99
2017-03-02T04:55:19.037Z,99.99
2017-03-02T04:56:29.179Z,99.99
2017-03-02T04:57:39.346Z,99.99
2017-03-02T04:58:49.495Z,99.99
2017-03-02T04:59:59.250Z,99.99
2017-03-02T05:01:09.845Z,99.99
2017-03-02T05:02:19.568Z,99.99
2017-03-02T05:03:28.897Z,99.99
2017-03-02T05:04:38.400Z,99.99
2017-03-02T05:05:48.131Z,99.99
2017-03-02T05:06:57.446Z,99.99
2017-03-02T05:08:07.193Z,99.99
2017-03-02T05:09:16.927Z,99.99
2017-03-02T05:10:26.774Z,99.99
2017-03-02T05:11:36.099Z,99.99
2017-03-02T05:12:45.438Z,99.99
2017-03-02T05:13:54.766Z,99.99
2017-03-02T05:15:04.508Z,99.99
2017-03-02T05:16:14.811Z,99.99
2017-03-02T05:17:24.149Z,99.99
2017-03-02T05:18:34.301Z,99.99
2017-03-02T05:19:44.866Z,99.99
2017-03-02T05:20:54.601Z,99.99
2017-03-02T05:22:03.682Z,99.99
2017-03-02T05:23:13.014Z,99.99
2017-03-02T05:24:22.367Z,99.99
2017-03-02T05:25:31.706Z,99.99
2017-03-02T05:26:41.073Z,99.99
2017-03-02T05:27:50.914Z,99.99
2017-03-02T05:29:01.097Z,99.99
2017-03-02T05:30:11.247Z,99.99
2017-03-02T05:31:20.166Z,99.99
2017-03-02T05:32:29.913Z,99.99
2017-03-02T05:33:39.075Z,99.99
2017-03-02T05:34:48.800Z,99.99
2017-03-02T05:35:58.116Z,99.99
2017-03-02T05:37:08.246Z,99.99
2017-03-02T05:38:17.159Z,99.99
2017-03-02T05:39:26.578Z,99.99
2017-03-02T05:40:35.502Z,99.99
2017-03-02T05:41:44.825Z,99.99
2017-03-02T05:42:54.555Z,99.99
2017-03-02T05:44:03.880Z,99.99
2017-03-02T05:45:14.211Z,99.99
2017-03-02T05:46:23.542Z,99.99
2017-03-02T05:47:32.858Z,99.99
2017-03-02T05:48:42.216Z,99.99
2017-03-02T05:49:51.957Z,99.99
2017-03-02T05:51:01.690Z,99.99
2017-03-02T05:52:10.657Z,99.99
2017-03-02T05:53:19.983Z,99.99
2017-03-02T05:54:29.722Z,99.99
2017-03-02T05:55:39.877Z,99.99
2017-03-02T05:56:48.939Z,99.99
2017-03-02T05:57:59.084Z,99.99
2017-03-02T05:59:09.221Z,99.99
2017-03-02T06:00:19.368Z,99.99
2017-03-02T06:01:29.112Z,99.99
2017-03-02T06:02:38.707Z,99.99
2017-03-02T06:03:49.250Z,99.99
2017-03-02T06:04:58.577Z,99.99
2017-03-02T06:06:08.419Z,99.99
2017-03-02T06:07:17.759Z,99.99
2017-03-02T06:08:27.240Z,99.99
2017-03-02T06:09:36.567Z,99.99
2017-03-02T06:10:46.698Z,99.99
2017-03-02T06:11:56.039Z,99.99
2017-03-02T06:13:05.392Z,99.99
2017-03-02T06:14:15.698Z,99.99
2017-03-02T06:15:25.882Z,99.99
2017-03-02T06:16:36.045Z,99.99
2017-03-02T06:17:44.963Z,99.99
2017-03-02T06:18:55.098Z,99.99
2017-03-02T06:20:04.602Z,99.99
2017-03-02T06:21:15.152Z,99.99
2017-03-02T06:22:24.491Z,99.99
2017-03-02T06:23:34.233Z,99.99
2017-03-02T06:24:43.983Z,99.99
2017-03-02T06:25:53.057Z,99.99
2017-03-02T06:27:02.798Z,99.99
2017-03-02T06:28:11.724Z,99.99
2017-03-02T06:29:21.044Z,99.99
2017-03-02T06:30:31.194Z,99.99
2017-03-02T06:31:41.079Z,99.99
2017-03-02T06:32:50.817Z,99.99
2017-03-02T06:34:00.144Z,99.99
2017-03-02T06:35:09.510Z,99.99
2017-03-02T06:36:18.824Z,99.99
2017-03-02T06:37:28.556Z,99.99
2017-03-02T06:38:37.494Z,99.99
2017-03-02T06:39:47.243Z,99.99
2017-03-02T06:40:56.168Z,99.99
2017-03-02T06:42:05.896Z,99.99
2017-03-02T06:43:16.161Z,99.99
2017-03-02T06:44:25.487Z,99.99
2017-03-02T06:45:34.403Z,99.99
2017-03-02T06:46:44.126Z,99.99
2017-03-02T06:47:53.862Z,99.99
2017-03-02T06:49:04.200Z,99.99
2017-03-02T06:50:14.735Z,99.99
2017-03-02T06:51:23.653Z,99.99
2017-03-02T06:52:32.607Z,99.99
2017-03-02T06:53:41.975Z,99.99
2017-03-02T06:54:50.934Z,99.99
2017-03-02T06:56:00.667Z,99.99
2017-03-02T06:57:10.416Z,99.99
2017-03-02T06:58:19.733Z,99.99
2017-03-02T06:59:29.464Z,99.99
2017-03-02T07:00:39.769Z,99.99
2017-03-02T07:01:49.518Z,99.99
2017-03-02T07:02:58.447Z,99.99
2017-03-02T07:04:08.617Z,99.99
2017-03-02T07:05:18.372Z,99.99
2017-03-02T07:06:28.655Z,99.99
2017-03-02T07:07:38.425Z,99.99
2017-03-02T07:08:47.749Z,99.99
2017-03-02T07:09:57.887Z,99.99
2017-03-02T07:11:07.243Z,99.99
2017-03-02T07:12:16.816Z,99.99
2017-03-02T07:13:26.564Z,99.99
2017-03-02T07:14:36.290Z,99.99
2017-03-02T07:15:46.042Z,99.99
2017-03-02T07:16:55.360Z,99.99
2017-03-02T07:18:05.147Z,99.99
2017-03-02T07:19:14.478Z,99.99
2017-03-02T07:20:24.217Z,99.99
2017-03-02T07:21:33.987Z,99.99
2017-03-02T07:22:43.380Z,99.99
2017-03-02T07:23:52.718Z,99.99
2017-03-02T07:25:02.032Z,99.99
2017-03-02T07:26:12.189Z,99.99
2017-03-02T07:27:22.321Z,99.99
2017-03-02T07:28:31.658Z,99.99
2017-03-02T07:29:41.230Z,99.99
2017-03-02T07:30:50.569Z,99.99
2017-03-02T07:31:59.496Z,99.99
2017-03-02T07:33:09.249Z,99.99
2017-03-02T07:34:18.996Z,99.99
2017-03-02T07:35:28.456Z,99.99
2017-03-02T07:36:38.604Z,99.99
2017-03-02T07:37:48.331Z,99.99
2017-03-02T07:38:57.666Z,99.99
2017-03-02T07:40:07.836Z,99.99
2017-03-02T07:41:17.738Z,99.99
2017-03-02T07:42:27.464Z,99.99
2017-03-02T07:43:38.013Z,99.99
2017-03-02T07:44:48.156Z,99.99
2017-03-02T07:45:57.469Z,99.99
2017-03-02T07:47:07.393Z,99.99
2017-03-02T07:48:17.132Z,99.99
2017-03-02T07:49:26.453Z,99.99
2017-03-02T07:50:36.581Z,99.99
2017-03-02T07:51:46.715Z,99.99
2017-03-02T07:52:57.010Z,99.99
2017-03-02T07:54:05.930Z,99.99
2017-03-02T07:55:14.866Z,99.99
2017-03-02T07:56:23.778Z,99.99
2017-03-02T07:57:33.503Z,99.99
2017-03-02T07:58:43.110Z,99.99
2017-03-02T07:59:52.444Z,99.99
2017-03-02T08:01:01.766Z,99.99
2017-03-02T08:02:10.684Z,99.99
2017-03-02T08:03:20.412Z,99.99
2017-03-02T08:04:29.986Z,99.99
2017-03-02T08:05:39.296Z,99.99
2017-03-02T08:06:49.029Z,99.99
2017-03-02T08:07:59.176Z,99.99
2017-03-02T08:09:08.529Z,99.99
2017-03-02T08:10:17.960Z,99.99
2017-03-02T08:11:27.687Z,99.99
2017-03-02T08:12:36.634Z,99.99
2017-03-02T08:13:46.798Z,99.99
2017-03-02T08:14:56.330Z,99.99
2017-03-02T08:16:05.649Z,99.99
2017-03-02T08:17:14.983Z,99.99
2017-03-02T08:18:23.910Z,99.99
2017-03-02T08:19:33.229Z,99.99
2017-03-02T08:20:42.969Z,99.99
2017-03-02T08:21:52.033Z,99.99
2017-03-02T08:23:01.773Z,99.99
2017-03-02T08:24:12.726Z,99.99
2017-03-02T08:25:22.052Z,99.99
2017-03-02T08:26:31.404Z,99.99
2017-03-02T08:27:40.480Z,99.99
2017-03-02T08:28:49.793Z,99.99
2017-03-02T08:29:59.144Z,99.99
2017-03-02T08:31:08.900Z,99.99
2017-03-02T08:32:19.051Z,99.99
2017-03-02T08:33:28.836Z,99.99
2017-03-02T08:34:38.972Z,99.99
2017-03-02T08:35:48.290Z,99.99
2017-03-02T08:36:58.441Z,99.99
2017-03-02T08:38:07.780Z,99.99
2017-03-02T08:39:17.159Z,99.99
2017-03-02T08:40:27.295Z,99.99
2017-03-02T08:41:36.617Z,99.99
2017-03-02T08:42:45.524Z,99.99
2017-03-02T08:43:55.257Z,99.99
2017-03-02T08:45:05.333Z,99.99
2017-03-02T08:46:14.657Z,99.99
2017-03-02T08:47:24.386Z,99.99
2017-03-02T08:48:33.714Z,99.99
2017-03-02T08:49:42.655Z,99.99
2017-03-02T08:50:51.853Z,99.99
2017-03-02T08:52:01.609Z,99.99
2017-03-02T08:53:10.930Z,99.99
2017-03-02T08:54:21.087Z,99.99
2017-03-02T08:55:30.821Z,99.99
2017-03-02T08:56:40.352Z,99.99
2017-03-02T08:57:50.094Z,99.99
2017-03-02T08:58:59.828Z,99.99
2017-03-02T09:00:08.741Z,99.99
2017-03-02T09:01:18.465Z,99.99
2017-03-02T09:02:28.341Z,99.99
2017-03-02T09:03:37.263Z,99.99
2017-03-02T09:04:47.000Z,99.99
2017-03-02T09:05:57.151Z,99.99
2017-03-02T09:07:06.465Z,99.99
2017-03-02T09:08:16.533Z,99.99
2017-03-02T09:09:25.857Z,99.99
2017-03-02T09:10:36.008Z,99.99
2017-03-02T09:11:44.926Z,99.99
2017-03-02T09:12:54.254Z,99.99
2017-03-02T09:14:03.828Z,99.99
2017-03-02T09:15:13.163Z,99.99
2017-03-02T09:16:22.883Z,99.99
2017-03-02T09:17:31.808Z,99.99
2017-03-02T09:18:41.549Z,99.99
2017-03-02T09:19:51.357Z,99.99
2017-03-02T09:21:01.081Z,99.99
2017-03-02T09:22:10.825Z,99.99
2017-03-02T09:23:20.146Z,99.99
2017-03-02T09:24:29.884Z,99.99
2017-03-02T09:25:39.376Z,99.99
2017-03-02T09:26:49.530Z,99.99
2017-03-02T09:27:58.868Z,99.99
2017-03-02T09:29:08.179Z,99.99
2017-03-02T09:30:17.511Z,99.99
2017-03-02T09:31:26.887Z,99.99
2017-03-02T09:32:36.203Z,99.99
2017-03-02T09:33:45.548Z,99.99
2017-03-02T09:34:54.888Z,99.99
2017-03-02T09:36:04.621Z,99.99
2017-03-02T09:37:13.828Z,99.99
2017-03-02T09:38:23.143Z,99.99
2017-03-02T09:39:32.059Z,99.99
2017-03-02T09:40:41.399Z,99.99
2017-03-02T09:41:50.729Z,99.99
2017-03-02T09:43:00.144Z,99.99
2017-03-02T09:44:10.299Z,99.99
2017-03-02T09:45:19.617Z,99.99
2017-03-02T09:46:28.948Z,99.99
2017-03-02T09:47:38.702Z,99.99
2017-03-02T09:48:48.136Z,99.99
2017-03-02T09:49:57.056Z,99.99
2017-03-02T09:51:06.399Z,99.99
2017-03-02T09:52:15.310Z,99.99
2017-03-02T09:53:24.665Z,99.99
2017-03-02T09:54:34.535Z,99.99
2017-03-02T09:55:43.890Z,99.99
2017-03-02T09:56:52.802Z,99.99
2017-03-02T09:58:02.938Z,99.99
2017-03-02T09:59:11.854Z,99.99
2017-03-02T10:00:21.600Z,99.99
2017-03-02T10:01:30.916Z,99.99
2017-03-02T10:02:40.253Z,99.99
2017-03-02T10:03:49.567Z,99.99
2017-03-02T10:04:58.891Z,99.99
2017-03-02T10:06:09.144Z,99.99
2017-03-02T10:07:18.889Z,99.99
2017-03-02T10:08:28.217Z,99.99
2017-03-02T10:09:37.942Z,99.99
2017-03-02T10:10:46.849Z,99.99
2017-03-02T10:11:56.046Z,99.99
2017-03-02T10:13:05.367Z,99.99
2017-03-02T10:14:14.697Z,99.99
2017-03-02T10:15:24.027Z,99.99
2017-03-02T10:16:33.770Z,99.99
2017-03-02T10:17:43.564Z,99.99
2017-03-02T10:18:52.902Z,99.99
2017-03-02T10:20:02.243Z,99.99
2017-03-02T10:21:11.568Z,99.99
2017-03-02T10:22:20.882Z,99.99
2017-03-02T10:23:30.219Z,99.99
2017-03-02T10:24:39.136Z,99.99
2017-03-02T10:25:48.482Z,99.99
2017-03-02T10:26:58.226Z,99.99
2017-03-02T10:28:07.156Z,99.99
2017-03-02T10:29:16.224Z,99.99
2017-03-02T10:30:25.555Z,99.99
2017-03-02T10:31:35.293Z,99.99
2017-03-02T10:32:44.620Z,99.99
2017-03-02T10:33:53.939Z,99.99
2017-03-02T10:35:03.250Z,99.99
2017-03-02T10:36:12.570Z,99.99
2017-03-02T10:37:21.901Z,99.99
2017-03-02T10:38:31.227Z,99.99
2017-03-02T10:39:40.981Z,99.99
2017-03-02T10:40:50.712Z,99.99
2017-03-02T10:42:00.043Z,99.99
2017-03-02T10:43:09.785Z,99.99
2017-03-02T10:44:19.118Z,99.99
2017-03-02T10:45:28.437Z,99.99
2017-03-02T10:46:37.977Z,99.99
2017-03-02T10:47:47.303Z,99.99
2017-03-02T10:48:57.442Z,99.99
2017-03-02T10:50:07.602Z,99.99
2017-03-02T10:51:17.332Z,99.99
2017-03-02T10:52:26.799Z,99.99
2017-03-02T10:53:36.533Z,99.99
2017-03-02T10:54:46.262Z,99.99
2017-03-02T10:55:55.186Z,99.99
2017-03-02T10:57:04.932Z,99.99
2017-03-02T10:58:14.838Z,99.99
2017-03-02T10:59:24.579Z,99.99
2017-03-02T11:00:33.913Z,99.99
2017-03-02T11:01:43.648Z,99.99
2017-03-02T11:02:52.972Z,99.99
2017-03-02T11:04:02.942Z,99.99
2017-03-02T11:05:13.084Z,99.99
2017-03-02T11:06:23.245Z,99.99
2017-03-02T11:07:32.982Z,99.99
2017-03-02T11:08:42.299Z,99.99
2017-03-02T11:09:51.666Z,99.99
2017-03-02T11:11:01.829Z,99.99
2017-03-02T11:12:11.166Z,99.99
2017-03-02T11:13:20.498Z,99.99
2017-03-02T11:14:30.629Z,99.99
2017-03-02T11:15:40.434Z,99.99
2017-03-02T11:16:49.763Z,99.99
2017-03-02T11:17:59.078Z,99.99
2017-03-02T11:19:08.831Z,99.99
2017-03-02T11:20:18.168Z,99.99
2017-03-02T11:21:28.037Z,99.99
2017-03-02T11:22:36.959Z,99.99
2017-03-02T11:23:46.686Z,99.99
2017-03-02T11:24:56.007Z,99.99
2017-03-02T11:26:06.156Z,99.99
2017-03-02T11:27:16.132Z,99.99
2017-03-02T11:28:25.876Z,99.99
2017-03-02T11:29:35.647Z,99.99
2017-03-02T11:30:44.968Z,99.99
2017-03-02T11:31:54.278Z,99.99
2017-03-02T11:33:04.690Z,99.99
2017-03-02T11:34:14.013Z,99.99
2017-03-02T11:35:23.335Z,99.99
2017-03-02T11:36:32.690Z,99.99
2017-03-02T11:37:42.022Z,99.99
2017-03-02T11:38:51.915Z,99.99
2017-03-02T11:40:01.647Z,99.99
2017-03-02T11:41:10.961Z,99.99
2017-03-02T11:42:20.289Z,99.99
2017-03-02T11:43:29.199Z,99.99
2017-03-02T11:44:38.723Z,99.99
2017-03-02T11:45:48.049Z,99.99
2017-03-02T11:46:57.370Z,99.99
2017-03-02T11:48:07.102Z,99.99
2017-03-02T11:49:16.828Z,99.99
2017-03-02T11:50:25.899Z,99.99
2017-03-02T11:51:36.067Z,99.99
2017-03-02T11:52:45.384Z,99.99
2017-03-02T11:53:54.725Z,99.99
2017-03-02T11:55:04.877Z,99.99
2017-03-02T11:56:14.384Z,99.99
2017-03-02T11:57:23.311Z,99.99
2017-03-02T11:58:33.082Z,99.99
2017-03-02T11:59:42.816Z,99.99
2017-03-02T12:00:52.141Z,99.99
2017-03-02T12:02:02.028Z,99.99
2017-03-02T12:03:11.789Z,99.99
2017-03-02T12:04:21.251Z,99.99
2017-03-02T12:05:30.572Z,99.99
2017-03-02T12:06:39.893Z,99.99
2017-03-02T12:07:49.721Z,99.99
2017-03-02T12:08:59.083Z,99.99
2017-03-02T12:10:09.271Z,99.99
2017-03-02T12:11:18.592Z,99.99
2017-03-02T12:12:27.927Z,99.99
2017-03-02T12:13:37.411Z,99.99
2017-03-02T12:14:47.157Z,99.99
2017-03-02T12:15:56.906Z,99.99
2017-03-02T12:17:06.658Z,99.99
2017-03-02T12:18:15.985Z,99.99
2017-03-02T12:19:24.965Z,99.99
2017-03-02T12:20:34.283Z,99.99
2017-03-02T12:21:44.018Z,99.99
2017-03-02T12:22:52.951Z,99.99
2017-03-02T12:24:02.309Z,99.99
2017-03-02T12:25:11.790Z,99.99
2017-03-02T12:26:20.703Z,99.99
2017-03-02T12:27:30.474Z,99.99
2017-03-02T12:28:40.616Z,99.99
2017-03-02T12:29:49.971Z,99.99
2017-03-02T12:30:59.861Z,99.99
2017-03-02T12:32:08.776Z,99.99
2017-03-02T12:33:18.528Z,99.99
2017-03-02T12:34:27.856Z,99.99
2017-03-02T12:35:37.712Z,99.99
2017-03-02T12:36:47.276Z,99.99
2017-03-02T12:37:56.665Z,99.99
2017-03-02T12:39:06.021Z,99.99
2017-03-02T12:40:14.944Z,99.99
2017-03-02T12:41:25.076Z,99.99
2017-03-02T12:42:33.990Z,99.99
2017-03-02T12:43:44.138Z,99.99
2017-03-02T12:44:53.095Z,99.99
2017-03-02T12:46:02.426Z,99.99
2017-03-02T12:47:11.361Z,99.99
2017-03-02T12:48:20.421Z,99.99
2017-03-02T12:49:30.158Z,99.99
2017-03-02T12:50:39.070Z,99.99
2017-03-02T12:51:48.825Z,99.99
2017-03-02T12:52:58.140Z,99.99
2017-03-02T12:54:08.027Z,99.99
2017-03-02T12:55:17.409Z,99.99
2017-03-02T12:56:27.173Z,99.99
2017-03-02T12:57:37.414Z,99.99
2017-03-02T12:58:46.786Z,99.99
2017-03-02T12:59:56.667Z,99.99
2017-03-02T13:01:05.592Z,99.99
2017-03-02T13:02:14.916Z,99.99
2017-03-02T13:03:24.243Z,99.99
2017-03-02T13:04:33.578Z,99.99
2017-03-02T13:05:43.146Z,99.99
2017-03-02T13:06:52.877Z,99.3
2017-03-02T13:08:01.798Z,99.4
2017-03-02T13:09:11.934Z,99.99
2017-03-02T13:10:21.307Z,99.49
2017-03-02T13:11:30.217Z,99.49
2017-03-02T13:12:39.130Z,99.99
2017-03-02T13:13:48.858Z,99.4
2017-03-02T13:14:58.175Z,99.99
2017-03-02T13:16:07.147Z,99.77
2017-03-02T13:17:17.476Z,99.49
2017-03-02T13:18:26.808Z,98.64
2017-03-02T13:19:36.859Z,98.64
2017-03-02T13:20:46.237Z,98.26
2017-03-02T13:21:55.570Z,99.02
2017-03-02T13:23:06.026Z,99.77
2017-03-02T13:24:14.944Z,99.68
2017-03-02T13:25:23.867Z,97.97
2017-03-02T13:26:33.217Z,99.11
2017-03-02T13:27:42.138Z,98.73
2017-03-02T13:28:51.282Z,99.99
2017-03-02T13:30:00.195Z,99.99
2017-03-02T13:31:09.540Z,99.99
2017-03-02T13:32:19.302Z,99.99
2017-03-02T13:33:28.688Z,99.99
2017-03-02T13:34:37.717Z,99.99
2017-03-02T13:35:47.454Z,99.99
2017-03-02T13:36:56.800Z,99.99
2017-03-02T13:38:06.124Z,99.99
2017-03-02T13:39:15.455Z,99.99
2017-03-02T13:40:24.945Z,99.99
2017-03-02T13:41:33.876Z,99.99
2017-03-02T13:42:42.799Z,99.99
2017-03-02T13:43:51.769Z,99.99
2017-03-02T13:45:00.699Z,99.99
2017-03-02T13:46:09.882Z,99.99
2017-03-02T13:47:19.631Z,99.99
2017-03-02T13:48:28.552Z,99.99
2017-03-02T13:49:38.283Z,99.99
2017-03-02T13:50:47.605Z,99.54
2017-03-02T13:51:57.341Z,99.35
2017-03-02T13:53:06.261Z,99.99
2017-03-02T13:54:15.199Z,99.99
2017-03-02T13:55:24.113Z,99.73
2017-03-02T13:56:33.868Z,99.4
2017-03-02T13:57:43.763Z,98.92
2017-03-02T13:58:53.114Z,99.73
2017-03-02T14:00:03.258Z,99.44
2017-03-02T14:01:12.608Z,99.35
2017-03-02T14:02:21.534Z,99.63
2017-03-02T14:03:31.524Z,99.63
2017-03-02T14:04:41.277Z,99.35
2017-03-02T14:05:50.189Z,99.35
2017-03-02T14:06:59.530Z,99.99
2017-03-02T14:08:08.859Z,99.91
2017-03-02T14:09:19.144Z,99.63
2017-03-02T14:10:28.071Z,99.99
2017-03-02T14:11:38.222Z,99.99
2017-03-02T14:12:47.546Z,99.99
2017-03-02T14:13:57.273Z,99.99
2017-03-02T14:15:06.798Z,99.99
2017-03-02T14:16:15.730Z,99.82
2017-03-02T14:17:25.466Z,98.92
2017-03-02T14:18:34.408Z,99.87
2017-03-02T14:19:43.780Z,99.99
2017-03-02T14:20:52.849Z,99.99
2017-03-02T14:22:02.169Z,99.99
2017-03-02T14:23:11.524Z,99.99
2017-03-02T14:24:20.475Z,99.91
2017-03-02T14:25:30.209Z,99.49
2017-03-02T14:26:39.281Z,99.35
2017-03-02T14:27:48.200Z,99.99
2017-03-02T14:28:57.517Z,99.99
2017-03-02T14:30:06.848Z,99.91
2017-03-02T14:31:16.599Z,99.99
2017-03-02T14:32:25.585Z,99.73
2017-03-02T14:33:34.952Z,99.63
2017-03-02T14:34:44.681Z,99.99
2017-03-02T14:35:54.008Z,99.99
2017-03-02T14:37:03.326Z,99.99
2017-03-02T14:38:12.704Z,99.99
2017-03-02T14:39:22.836Z,99.99
2017-03-02T14:40:32.151Z,99.99
2017-03-02T14:41:41.499Z,99.99
2017-03-02T14:42:51.222Z,99.99
2017-03-02T14:44:00.755Z,99.99
2017-03-02T14:45:09.679Z,99.99
2017-03-02T14:46:19.005Z,99.99
2017-03-02T14:47:28.320Z,99.99
2017-03-02T14:48:37.230Z,99.99
2017-03-02T14:49:46.189Z,99.99
2017-03-02T14:50:55.947Z,99.99
2017-03-02T14:52:05.273Z,99.99
2017-03-02T14:53:14.605Z,99.99
2017-03-02T14:54:23.922Z,99.99
2017-03-02T14:55:33.302Z,99.99